createdAt,value
2022-12-24T00:01:43.336Z,1.53
2022-12-24T00:04:09.951Z,1.51
2022-12-24T00:06:36.558Z,1.61
2022-12-24T00:09:04.086Z,1.56
2022-12-24T00:11:30.704Z,1.56
2022-12-24T00:13:57.316Z,1.54
2022-12-24T00:16:24.232Z,0.98
2022-12-24T00:18:50.867Z,1.52
2022-12-24T00:21:17.571Z,0.75
2022-12-24T00:23:44.615Z,1.13
2022-12-24T00:26:12.055Z,1.51
2022-12-24T00:28:38.924Z,1.48
2022-12-24T00:31:16.850Z,1.44
2022-12-24T00:33:43.895Z,1.46
2022-12-24T00:36:11.211Z,1.37
2022-12-24T00:38:38.467Z,1.37
2022-12-24T00:41:24.463Z,1.35
2022-12-24T00:43:54.480Z,1.36
2022-12-24T00:46:21.557Z,1.28
2022-12-24T00:48:48.890Z,1.46
2022-12-24T00:51:16.530Z,1.47
2022-12-24T00:53:43.517Z,1.39
2022-12-24T00:56:10.458Z,1.47
2022-12-24T00:58:37.427Z,1.08
2022-12-24T01:01:04.353Z,1.62
2022-12-24T01:03:36.957Z,1.56
2022-12-24T01:06:08.110Z,1.79
2022-12-24T01:08:35.377Z,1.81
2022-12-24T01:11:03.710Z,1.86
2022-12-24T01:13:30.490Z,1.85
2022-12-24T01:15:57.184Z,1.87
2022-12-24T01:18:24.655Z,1.84
2022-12-24T01:21:01.307Z,1.70
2022-12-24T01:23:29.524Z,1.63
2022-12-24T01:26:00.587Z,1.58
2022-12-24T01:28:27.448Z,1.21
2022-12-24T01:30:54.175Z,1.42
2022-12-24T01:33:20.792Z,1.52
2022-12-24T01:35:47.665Z,1.04
2022-12-24T01:38:15.339Z,1.56
2022-12-24T01:41:01.455Z,1.55
2022-12-24T01:43:31.275Z,1.40
2022-12-24T01:46:20.453Z,0.95
2022-12-24T01:48:52.946Z,0.90
2022-12-24T01:51:45.244Z,1.31
2022-12-24T01:54:18.390Z,1.18
2022-12-24T01:56:50.599Z,1.21
2022-12-24T01:59:20.685Z,0.96
2022-12-24T02:01:49.939Z,1.25
2022-12-24T02:04:48.888Z,1.29
2022-12-24T02:07:15.829Z,0.55
2022-12-24T02:09:42.865Z,1.25
2022-12-24T02:12:09.808Z,1.18
2022-12-24T02:14:37.376Z,1.42
2022-12-24T02:17:12.835Z,1.35
2022-12-24T02:19:57.761Z,1.37
2022-12-24T02:22:53.657Z,1.29
2022-12-24T02:25:44.428Z,1.35
2022-12-24T02:28:33.471Z,1.29
2022-12-24T02:31:06.141Z,1.41
2022-12-24T02:34:13.111Z,1.34
2022-12-24T02:36:49.504Z,1.53
2022-12-24T02:39:27.440Z,0.82
2022-12-24T02:42:06.299Z,1.13
2022-12-24T02:44:50.667Z,1.42
2022-12-24T02:47:20.571Z,1.28
2022-12-24T02:49:48.193Z,0.67
2022-12-24T02:52:34.840Z,1.01
2022-12-24T02:55:05.901Z,1.01
2022-12-24T02:57:47.232Z,1.03
2022-12-24T03:00:18.316Z,0.82
2022-12-24T03:02:47.619Z,1.16
2022-12-24T03:05:44.178Z,1.18
2022-12-24T03:08:25.829Z,1.17
2022-12-24T03:10:57.987Z,1.11
2022-12-24T03:13:27.024Z,0.93
2022-12-24T03:15:53.772Z,0.93
2022-12-24T03:18:25.102Z,1.10
2022-12-24T03:21:01.853Z,0.90
2022-12-24T03:23:28.943Z,1.02
2022-12-24T03:25:55.645Z,1.19
2022-12-24T03:28:26.933Z,0.94
2022-12-24T03:30:53.726Z,1.19
2022-12-24T03:33:21.297Z,1.17
2022-12-24T03:35:48.064Z,1.16
2022-12-24T03:38:14.625Z,1.13
2022-12-24T03:40:41.225Z,0.93
2022-12-24T03:43:07.815Z,1.08
2022-12-24T03:45:34.477Z,1.19
2022-12-24T03:48:01.109Z,1.14
2022-12-24T03:50:27.742Z,1.25
2022-12-24T03:52:55.489Z,1.19
2022-12-24T03:55:22.576Z,1.13
2022-12-24T03:57:49.342Z,1.10
2022-12-24T04:00:16.347Z,1.19
2022-12-24T04:02:43.751Z,0.04
2022-12-24T04:05:18.087Z,0.84
2022-12-24T04:07:45.415Z,0.54
2022-12-24T04:10:12.555Z,0.75
2022-12-24T04:12:39.309Z,0.78
2022-12-24T04:15:06.619Z,0.45
2022-12-24T04:17:33.844Z,0.52
2022-12-24T04:20:00.402Z,0.64
2022-12-24T04:22:27.024Z,0.65
2022-12-24T04:24:53.609Z,0.56
2022-12-24T04:27:22.028Z,0.41
2022-12-24T04:29:51.932Z,0.54
2022-12-24T04:32:18.602Z,-2.38
2022-12-24T04:34:45.229Z,0.52
2022-12-24T04:37:11.798Z,0.16
2022-12-24T04:39:38.427Z,0.07
2022-12-24T04:42:05.018Z,0.69
2022-12-24T04:44:31.559Z,0.67
2022-12-24T04:46:58.169Z,0.69
2022-12-24T04:49:24.853Z,0.78
2022-12-24T04:51:51.421Z,0.69
2022-12-24T04:54:18.048Z,0.81
2022-12-24T04:56:44.709Z,0.80
2022-12-24T04:59:11.260Z,0.77
2022-12-24T05:01:38.195Z,0.93
2022-12-24T05:04:06.879Z,1.03
2022-12-24T05:06:34.819Z,0.61
2022-12-24T05:09:01.462Z,1.09
2022-12-24T05:11:28.252Z,0.94
2022-12-24T05:13:55.040Z,1.04
2022-12-24T05:16:23.038Z,1.05
2022-12-24T05:18:50.256Z,0.64
2022-12-24T05:21:20.703Z,0.97
2022-12-24T05:24:06.463Z,1.00
2022-12-24T05:26:38.694Z,1.00
2022-12-24T05:29:07.174Z,0.88
2022-12-24T05:31:34.599Z,0.28
2022-12-24T05:34:03.267Z,0.73
2022-12-24T05:36:30.474Z,0.76
2022-12-24T05:38:57.677Z,0.76
2022-12-24T05:41:24.979Z,0.72
2022-12-24T05:43:52.098Z,0.71
2022-12-24T05:46:21.039Z,0.77
2022-12-24T05:48:48.938Z,0.85
2022-12-24T05:51:19.664Z,0.85
2022-12-24T05:53:47.314Z,0.83
2022-12-24T05:56:24.759Z,0.78
2022-12-24T05:58:52.229Z,0.95
2022-12-24T06:01:20.062Z,0.93
2022-12-24T06:03:46.924Z,0.99
2022-12-24T06:06:17.709Z,0.59
2022-12-24T06:08:44.311Z,1.11
2022-12-24T06:11:13.619Z,1.18
2022-12-24T06:13:41.605Z,1.19
2022-12-24T06:16:10.909Z,1.14
2022-12-24T06:18:37.804Z,0.82
2022-12-24T06:21:05.842Z,1.20
2022-12-24T06:23:35.588Z,1.24
2022-12-24T06:26:03.865Z,1.22
2022-12-24T06:28:32.731Z,1.28
2022-12-24T06:31:03.222Z,1.40
2022-12-24T06:33:32.336Z,1.48
2022-12-24T06:35:59.060Z,1.58
2022-12-24T06:38:26.156Z,1.73
2022-12-24T06:40:52.799Z,1.90
2022-12-24T06:43:19.336Z,2.07
2022-12-24T06:45:47.821Z,1.86
2022-12-24T06:48:15.127Z,2.21
2022-12-24T06:50:42.400Z,1.68
2022-12-24T06:53:10.224Z,1.81
2022-12-24T06:55:36.906Z,2.36
2022-12-24T06:58:04.169Z,1.79
2022-12-24T07:00:30.948Z,1.33
2022-12-24T07:02:57.714Z,2.20
2022-12-24T07:05:24.342Z,2.52
2022-12-24T07:07:50.960Z,2.68
2022-12-24T07:10:19.210Z,2.63
2022-12-24T07:12:46.404Z,2.68
2022-12-24T07:15:13.254Z,3.46
2022-12-24T07:17:39.990Z,3.58
2022-12-24T07:20:08.943Z,3.90
2022-12-24T07:22:35.512Z,4.12
2022-12-24T07:25:02.235Z,4.16
2022-12-24T07:27:28.836Z,4.36
2022-12-24T07:29:55.492Z,2.26
2022-12-24T07:32:22.141Z,4.82
2022-12-24T07:34:48.818Z,4.52
2022-12-24T07:37:16.294Z,5.33
2022-12-24T07:39:42.939Z,5.56
2022-12-24T07:42:09.520Z,5.55
2022-12-24T07:44:36.097Z,5.86
2022-12-24T07:47:02.830Z,5.93
2022-12-24T07:49:29.787Z,6.17
2022-12-24T07:51:56.548Z,5.41
2022-12-24T07:54:23.294Z,6.10
2022-12-24T07:56:50.119Z,6.27
2022-12-24T07:59:16.782Z,6.58
2022-12-24T08:01:43.437Z,7.27
2022-12-24T08:04:10.263Z,7.58
2022-12-24T08:06:37.011Z,7.91
2022-12-24T08:09:03.988Z,7.87
2022-12-24T08:11:30.970Z,8.25
2022-12-24T08:13:57.645Z,8.28
2022-12-24T08:16:24.295Z,8.22
2022-12-24T08:18:50.945Z,8.65
2022-12-24T08:21:17.688Z,8.83
2022-12-24T08:23:44.343Z,8.82
2022-12-24T08:26:12.469Z,8.43
2022-12-24T08:28:39.236Z,8.97
2022-12-24T08:31:06.122Z,8.90
2022-12-24T08:33:32.787Z,8.91
2022-12-24T08:36:01.997Z,8.98
2022-12-24T08:38:28.676Z,8.97
2022-12-24T08:40:55.805Z,8.60
2022-12-24T08:43:23.054Z,8.99
2022-12-24T08:45:50.095Z,9.02
2022-12-24T08:48:17.475Z,9.10
2022-12-24T08:50:44.976Z,9.14
2022-12-24T08:53:13.612Z,9.53
2022-12-24T08:55:40.341Z,9.00
2022-12-24T08:58:06.997Z,9.97
2022-12-24T09:00:33.884Z,10.39
2022-12-24T09:03:00.758Z,10.43
2022-12-24T09:05:27.560Z,11.01
2022-12-24T09:07:54.169Z,11.26
2022-12-24T09:10:21.322Z,11.25
2022-12-24T09:12:47.982Z,11.19
2022-12-24T09:15:14.753Z,11.81
2022-12-24T09:17:41.748Z,11.68
2022-12-24T09:20:09.321Z,11.07
2022-12-24T09:22:37.614Z,11.48
2022-12-24T09:25:06.307Z,11.41
2022-12-24T09:27:32.990Z,11.46
2022-12-24T09:29:59.721Z,11.42
2022-12-24T09:32:26.334Z,11.19
2022-12-24T09:34:54.021Z,11.49
2022-12-24T09:37:20.933Z,11.48
2022-12-24T09:39:47.743Z,11.51
2022-12-24T09:42:32.795Z,11.66
2022-12-24T09:45:19.808Z,11.85
2022-12-24T09:48:17.640Z,12.10
2022-12-24T09:50:57.144Z,12.19
2022-12-24T09:53:32.560Z,12.37
2022-12-24T09:56:01.898Z,10.30
2022-12-24T09:58:39.724Z,12.58
2022-12-24T10:01:07.111Z,12.65
2022-12-24T10:03:33.945Z,11.90
2022-12-24T10:06:29.089Z,11.43
2022-12-24T10:09:14.257Z,12.02
2022-12-24T10:12:08.816Z,12.25
2022-12-24T10:14:40.982Z,12.41
2022-12-24T10:17:30.098Z,12.60
2022-12-24T10:20:11.670Z,12.70
2022-12-24T10:23:00.207Z,12.77
2022-12-24T10:26:03.410Z,12.75
2022-12-24T10:28:52.281Z,13.09
2022-12-24T10:31:27.611Z,13.24
2022-12-24T10:34:00.611Z,12.49
2022-12-24T10:36:29.937Z,13.31
2022-12-24T10:38:57.311Z,13.47
2022-12-24T10:41:26.354Z,13.80
2022-12-24T10:43:54.277Z,11.79
2022-12-24T10:46:38.400Z,13.50
2022-12-24T10:49:07.891Z,14.11
2022-12-24T10:51:55.806Z,14.25
2022-12-24T10:54:27.319Z,13.89
2022-12-24T10:57:02.535Z,14.38
2022-12-24T10:59:30.813Z,13.97
2022-12-24T11:01:59.127Z,13.14
2022-12-24T11:04:28.977Z,14.15
2022-12-24T11:07:04.414Z,13.54
2022-12-24T11:09:36.891Z,13.89
2022-12-24T11:12:09.286Z,13.28
2022-12-24T11:14:40.237Z,12.97
2022-12-24T11:17:07.226Z,12.63
2022-12-24T11:19:39.471Z,12.80
2022-12-24T11:22:16.744Z,12.23
2022-12-24T11:24:49.889Z,12.78
2022-12-24T11:27:45.962Z,12.65
2022-12-24T11:30:15.715Z,12.85
2022-12-24T11:32:51.069Z,13.04
2022-12-24T11:35:23.951Z,13.39
2022-12-24T11:38:17.415Z,13.74
2022-12-24T11:40:46.516Z,14.05
2022-12-24T11:43:19.408Z,14.32
2022-12-24T11:45:53.160Z,14.47
2022-12-24T11:48:29.439Z,14.50
2022-12-24T11:51:08.113Z,14.42
2022-12-24T11:54:04.895Z,14.46
2022-12-24T11:56:54.671Z,14.50
2022-12-24T11:59:30.793Z,14.18
2022-12-24T12:02:37.617Z,14.44
2022-12-24T12:05:16.309Z,13.87
2022-12-24T12:07:46.838Z,14.01
2022-12-24T12:10:19.840Z,14.14
2022-12-24T12:13:15.488Z,14.15
2022-12-24T12:16:05.220Z,14.23
2022-12-24T12:18:39.271Z,14.23
2022-12-24T12:21:19.909Z,13.84
2022-12-24T12:23:56.399Z,13.85
2022-12-24T12:26:27.052Z,14.15
2022-12-24T12:29:01.800Z,14.23
2022-12-24T12:31:38.736Z,13.99
2022-12-24T12:34:17.516Z,14.39
2022-12-24T12:36:49.082Z,14.26
2022-12-24T12:39:15.712Z,13.48
2022-12-24T12:41:58.743Z,13.66
2022-12-24T12:44:35.981Z,13.93
2022-12-24T12:47:16.079Z,13.70
2022-12-24T12:50:11.435Z,13.76
2022-12-24T12:52:59.546Z,13.57
2022-12-24T12:56:05.892Z,13.66
2022-12-24T12:58:49.020Z,13.84
2022-12-24T13:01:34.926Z,13.78
2022-12-24T13:04:35.198Z,13.75
2022-12-24T13:07:44.806Z,13.75
2022-12-24T13:10:30.102Z,13.77
2022-12-24T13:13:34.250Z,13.62
2022-12-24T13:16:10.561Z,13.63
2022-12-24T13:18:44.638Z,13.67
2022-12-24T13:21:18.608Z,13.67
2022-12-24T13:23:45.491Z,13.40
2022-12-24T13:26:14.560Z,12.91
2022-12-24T13:28:41.960Z,13.26
2022-12-24T13:31:19.723Z,13.28
2022-12-24T13:33:49.186Z,13.20
2022-12-24T13:36:18.109Z,13.27
2022-12-24T13:39:19.108Z,13.25
2022-12-24T13:41:52.306Z,12.73
2022-12-24T13:44:21.928Z,13.16
2022-12-24T13:47:04.976Z,13.07
2022-12-24T13:49:45.812Z,12.75
2022-12-24T13:52:12.335Z,12.85
2022-12-24T13:54:42.798Z,12.28
2022-12-24T13:57:30.499Z,12.69
2022-12-24T14:00:04.893Z,12.35
2022-12-24T14:02:35.525Z,12.66
2022-12-24T14:05:08.699Z,12.70
2022-12-24T14:07:36.661Z,12.12
2022-12-24T14:10:06.380Z,12.38
2022-12-24T14:12:47.631Z,12.25
2022-12-24T14:15:45.442Z,12.14
2022-12-24T14:18:18.993Z,12.05
2022-12-24T14:20:48.674Z,11.98
2022-12-24T14:23:39.469Z,11.67
2022-12-24T14:26:14.271Z,11.57
2022-12-24T14:28:46.543Z,9.35
2022-12-24T14:31:18.952Z,11.61
2022-12-24T14:33:46.251Z,11.02
2022-12-24T14:36:16.504Z,11.39
2022-12-24T14:38:45.325Z,10.84
2022-12-24T14:41:36.073Z,11.10
2022-12-24T14:44:16.833Z,10.67
2022-12-24T14:46:58.879Z,10.66
2022-12-24T14:50:12.216Z,10.76
2022-12-24T14:53:07.180Z,10.68
2022-12-24T14:55:44.405Z,10.63
2022-12-24T14:58:25.216Z,10.57
2022-12-24T15:00:54.468Z,10.39
2022-12-24T15:03:23.689Z,10.18
2022-12-24T15:05:53.594Z,10.21
2022-12-24T15:08:33.567Z,9.96
2022-12-24T15:11:03.949Z,10.07
2022-12-24T15:13:36.772Z,10.07
2022-12-24T15:16:07.754Z,10.04
2022-12-24T15:18:38.356Z,9.96
2022-12-24T15:21:08.596Z,9.96
2022-12-24T15:23:37.499Z,9.77
2022-12-24T15:26:20.243Z,9.83
2022-12-24T15:28:47.079Z,9.83
2022-12-24T15:31:17.275Z,9.79
2022-12-24T15:33:48.516Z,9.73
2022-12-24T15:36:17.956Z,9.64
2022-12-24T15:38:47.193Z,9.60
2022-12-24T15:41:23.914Z,9.59
2022-12-24T15:43:53.058Z,9.52
2022-12-24T15:46:26.343Z,8.95
2022-12-24T15:48:55.474Z,9.07
2022-12-24T15:51:26.622Z,9.37
2022-12-24T15:54:00.605Z,9.33
2022-12-24T15:56:39.734Z,8.62
2022-12-24T15:59:13.036Z,9.01
2022-12-24T16:01:39.944Z,8.84
2022-12-24T16:04:25.539Z,8.60
2022-12-24T16:07:04.829Z,9.22
2022-12-24T16:09:45.852Z,9.08
2022-12-24T16:12:22.215Z,8.97
2022-12-24T16:15:00.210Z,9.02
2022-12-24T16:17:29.973Z,8.76
2022-12-24T16:20:16.123Z,8.91
2022-12-24T16:22:46.257Z,8.31
2022-12-24T16:25:30.788Z,9.05
2022-12-24T16:28:00.626Z,8.93
2022-12-24T16:30:27.556Z,9.02
2022-12-24T16:32:54.187Z,9.02
2022-12-24T16:35:36.624Z,8.95
2022-12-24T16:38:04.193Z,8.50
2022-12-24T16:40:30.905Z,9.06
2022-12-24T16:43:16.198Z,9.04
2022-12-24T16:45:44.016Z,8.98
2022-12-24T16:48:19.326Z,8.85
2022-12-24T16:50:45.904Z,8.74
2022-12-24T16:53:17.857Z,8.91
2022-12-24T16:55:46.016Z,8.81
2022-12-24T16:58:14.133Z,9.01
2022-12-24T17:00:42.465Z,8.88
2022-12-24T17:03:09.400Z,9.01
2022-12-24T17:05:41.088Z,9.01
2022-12-24T17:08:08.742Z,9.02
2022-12-24T17:10:35.637Z,8.97
2022-12-24T17:13:02.734Z,8.90
2022-12-24T17:15:29.761Z,8.99
2022-12-24T17:17:56.517Z,8.96
2022-12-24T17:20:24.535Z,8.62
2022-12-24T17:22:51.463Z,8.94
2022-12-24T17:25:18.221Z,9.03
2022-12-24T17:27:44.955Z,9.00
2022-12-24T17:30:12.072Z,9.00
2022-12-24T17:32:39.644Z,8.61
2022-12-24T17:35:07.684Z,8.94
2022-12-24T17:37:34.407Z,8.95
2022-12-24T17:40:01.035Z,8.92
2022-12-24T17:42:27.548Z,8.81
2022-12-24T17:44:54.144Z,8.91
2022-12-24T17:47:20.852Z,8.90
2022-12-24T17:49:47.551Z,8.61
2022-12-24T17:52:14.237Z,8.73
2022-12-24T17:54:40.822Z,8.75
2022-12-24T17:57:07.567Z,8.77
2022-12-24T17:59:34.186Z,8.59
2022-12-24T18:02:00.907Z,8.82
2022-12-24T18:04:27.609Z,8.91
2022-12-24T18:07:01.746Z,8.55
2022-12-24T18:09:29.366Z,8.81
2022-12-24T18:11:56.116Z,8.62
2022-12-24T18:14:22.768Z,8.74
2022-12-24T18:16:49.875Z,8.69
2022-12-24T18:19:16.706Z,8.58
2022-12-24T18:21:43.748Z,8.53
2022-12-24T18:24:13.408Z,8.62
2022-12-24T18:26:40.274Z,8.64
2022-12-24T18:29:08.810Z,8.37
2022-12-24T18:31:36.340Z,8.75
2022-12-24T18:34:04.667Z,8.69
2022-12-24T18:36:31.451Z,6.44
2022-12-24T18:38:58.196Z,8.69
2022-12-24T18:41:30.390Z,8.65
2022-12-24T18:43:57.828Z,8.67
2022-12-24T18:46:30.799Z,8.60
2022-12-24T18:48:59.696Z,8.45
2022-12-24T18:51:30.141Z,8.81
2022-12-24T18:53:56.948Z,8.84
2022-12-24T18:56:25.320Z,8.49
2022-12-24T18:58:57.402Z,8.34
2022-12-24T19:01:34.867Z,8.24
2022-12-24T19:04:02.314Z,8.41
2022-12-24T19:06:29.041Z,8.59
2022-12-24T19:08:57.621Z,8.62
2022-12-24T19:11:25.473Z,8.75
2022-12-24T19:13:53.210Z,8.76
2022-12-24T19:16:21.014Z,8.73
2022-12-24T19:18:47.751Z,8.72
2022-12-24T19:21:17.370Z,8.64
2022-12-24T19:23:44.582Z,8.48
2022-12-24T19:26:12.430Z,8.62
2022-12-24T19:28:39.045Z,8.68
2022-12-24T19:31:08.377Z,8.29
2022-12-24T19:33:42.882Z,8.70
2022-12-24T19:36:12.962Z,8.69
2022-12-24T19:38:40.232Z,8.76
2022-12-24T19:41:12.733Z,8.77
2022-12-24T19:43:41.543Z,8.60
2022-12-24T19:46:10.083Z,8.40
2022-12-24T19:48:37.047Z,8.58
2022-12-24T19:51:05.903Z,8.55
2022-12-24T19:53:32.634Z,8.44
2022-12-24T19:55:59.260Z,8.12
2022-12-24T19:58:27.050Z,8.26
2022-12-24T20:00:54.269Z,8.07
2022-12-24T20:03:22.104Z,8.36
2022-12-24T20:05:48.907Z,7.92
2022-12-24T20:08:15.563Z,8.43
2022-12-24T20:10:44.135Z,8.42
2022-12-24T20:13:11.359Z,8.11
2022-12-24T20:15:43.011Z,8.29
2022-12-24T20:18:11.288Z,8.36
2022-12-24T20:20:38.469Z,8.31
2022-12-24T20:23:06.349Z,8.03
2022-12-24T20:25:37.293Z,8.36
2022-12-24T20:28:05.223Z,8.33
2022-12-24T20:30:32.073Z,8.32
2022-12-24T20:32:58.720Z,8.40
2022-12-24T20:35:25.468Z,8.31
2022-12-24T20:37:52.080Z,8.69
2022-12-24T20:40:18.757Z,8.59
2022-12-24T20:42:45.329Z,8.59
2022-12-24T20:45:11.929Z,8.58
2022-12-24T20:47:39.281Z,8.47
2022-12-24T20:50:06.627Z,8.23
2022-12-24T20:52:33.246Z,8.07
2022-12-24T20:54:59.923Z,8.02
2022-12-24T20:57:31.478Z,8.16
2022-12-24T21:00:02.550Z,8.16
2022-12-24T21:02:29.306Z,8.25
2022-12-24T21:05:01.653Z,8.26
2022-12-24T21:07:28.997Z,7.98
2022-12-24T21:09:55.573Z,7.83
2022-12-24T21:12:41.004Z,8.12
2022-12-24T21:15:07.755Z,7.72
2022-12-24T21:17:34.413Z,8.12
2022-12-24T21:20:01.152Z,7.67
2022-12-24T21:22:27.750Z,8.09
2022-12-24T21:24:54.380Z,5.42
2022-12-24T21:27:21.031Z,7.88
2022-12-24T21:29:47.799Z,8.04
2022-12-24T21:32:14.414Z,7.83
2022-12-24T21:34:40.979Z,7.91
2022-12-24T21:37:07.577Z,8.04
2022-12-24T21:39:34.188Z,8.02
2022-12-24T21:42:00.821Z,6.81
2022-12-24T21:44:27.410Z,7.74
2022-12-24T21:46:53.992Z,7.56
2022-12-24T21:49:39.189Z,7.15
2022-12-24T21:52:05.888Z,7.68
2022-12-24T21:54:33.209Z,4.99
2022-12-24T21:57:21.412Z,7.59
2022-12-24T21:59:55.316Z,7.67
2022-12-24T22:02:27.611Z,7.74
2022-12-24T22:04:54.828Z,7.69
2022-12-24T22:07:45.676Z,7.29
2022-12-24T22:10:32.679Z,7.71
2022-12-24T22:13:00.459Z,7.49
2022-12-24T22:15:27.527Z,7.42
2022-12-24T22:17:54.219Z,7.12
2022-12-24T22:20:20.825Z,7.27
2022-12-24T22:22:48.847Z,7.20
2022-12-24T22:25:15.816Z,7.31
2022-12-24T22:27:42.434Z,7.26
2022-12-24T22:30:09.625Z,6.33
2022-12-24T22:32:36.235Z,6.91
2022-12-24T22:35:02.896Z,6.73
2022-12-24T22:37:29.486Z,6.81
2022-12-24T22:39:56.299Z,6.94
2022-12-24T22:42:22.958Z,6.89
2022-12-24T22:44:49.568Z,6.87
2022-12-24T22:47:16.149Z,6.72
2022-12-24T22:49:42.694Z,6.87
2022-12-24T22:52:09.271Z,6.95
2022-12-24T22:54:36.552Z,6.92
2022-12-24T22:57:03.219Z,6.84
2022-12-24T22:59:29.847Z,6.76
2022-12-24T23:01:56.998Z,6.64
2022-12-24T23:04:23.970Z,6.51
2022-12-24T23:06:50.554Z,6.44
2022-12-24T23:09:18.050Z,6.00
2022-12-24T23:11:45.243Z,6.59
2022-12-24T23:14:35.170Z,6.28
2022-12-24T23:17:01.885Z,6.02
2022-12-24T23:19:28.569Z,6.56
2022-12-24T23:21:55.172Z,6.54
2022-12-24T23:24:21.807Z,6.42
2022-12-24T23:26:48.399Z,6.03
2022-12-24T23:29:15.056Z,6.41
2022-12-24T23:31:41.696Z,5.74
2022-12-24T23:34:08.269Z,6.60
2022-12-24T23:36:35.017Z,6.51
2022-12-24T23:39:01.620Z,6.70
2022-12-24T23:41:28.199Z,6.67
2022-12-24T23:43:54.768Z,6.71
2022-12-24T23:46:21.846Z,6.74
2022-12-24T23:48:48.933Z,6.78
2022-12-24T23:51:18.038Z,6.75
2022-12-24T23:53:44.729Z,6.41
2022-12-24T23:56:12.584Z,6.82
2022-12-24T23:58:41.126Z,6.76
